Emslake — V2FL4 — position and weather

sailwx.info

Track history (hours):
 
Tides and Currents Weather Stations Pressure Air Temp Water Temp Dewpoint Dewpoint Depression Visibility Wind Speed Wind Dir Waves Ship Positions

Emslake

Last reported at 2014-Oct-20 23:15 UTC. Time now 2014-Oct-22 09:51 UTC.
Position N 57°28' E 017°49'.

Length 100 m; draft 6.2 m.

Type: Cargo ship. MMSI: 305712000.

Date/timePositionNaut miles runAvg speedWind from/ knotsBaromVisibWave heightAir tempDewpointWater temp
2014-Oct-20 23:15N 57°28' E 017°49'7 9.9
2014-Oct-20 22:32N 57°22' E 017°44'10 9.8
2014-Oct-20 21:33N 57°13' E 017°37'11 9.8
2014-Oct-20 20:28N 57°03' E 017°30'71 9.6
2014-Oct-20 13:05N 55°59' E 016°32'5 9.6
2014-Oct-20 12:33N 55°57' E 016°24'32 9.8
2014-Oct-20 09:21N 55°40' E 015°37'8 9.9
2014-Oct-20 08:33N 55°37' E 015°24'1010.2
2014-Oct-20 07:34N 55°32' E 015°08'1010.2
2014-Oct-20 06:34N 55°27' E 014°53'1010.0
2014-Oct-20 05:34N 55°22' E 014°38'10 9.8
2014-Oct-20 04:34N 55°14' E 014°27'10 9.8
2014-Oct-20 03:34N 55°06' E 014°16'1010.2
2014-Oct-20 02:33N 54°60' E 014°03'1110.5
2014-Oct-20 01:33N 54°56' E 013°46'4110.3
2014-Oct-19 21:32N 54°39' E 012°40'10 9.8
2014-Oct-19 20:33N 54°34' E 012°26'9 9.1
2014-Oct-19 19:33N 54°28' E 012°15'9 9.0
2014-Oct-19 18:33N 54°25' E 012°00'10 9.9
2014-Oct-19 17:33N 54°26' E 011°43'34 9.9
2014-Oct-19 14:09N 54°34' E 010°47'610.2
2014-Oct-19 13:33N 54°33' E 010°36'10 9.7
2014-Oct-19 12:33N 54°30' E 010°21'9 9.1
2014-Oct-19 11:33N 54°23' E 010°11'2 2.3
2014-Oct-19 10:34N 54°22' E 010°08'0 0.0
2014-Oct-19 09:30N 54°22' E 010°08'2 2.5
2014-Oct-19 08:34N 54°22' E 010°04'8 7.9
2014-Oct-19 07:34N 54°22' E 009°50'8 7.7
2014-Oct-19 06:34N 54°17' E 009°39'6 6.0
2014-Oct-19 05:34N 54°12' E 009°34'13 6.4
2014-Oct-19 03:31N 54°03' E 009°18'5 4.8
2014-Oct-19 02:33N 53°58' E 009°16'4 3.6
2014-Oct-19 01:33N 53°55' E 009°12'3 2.7
2014-Oct-19 00:34N 53°54' E 009°09'4 4.0
2014-Oct-18 23:34N 53°52' E 009°02'9 8.6
2014-Oct-18 22:34N 53°50' E 008°48'9 8.8
2014-Oct-18 21:33N 53°57' E 008°38'10 9.6
2014-Oct-18 20:33N 53°59' E 008°22'10 9.7
2014-Oct-18 19:33N 53°59' E 008°06'1010.2
2014-Oct-18 18:33N 53°57' E 007°49'5310.4
2014-Oct-18 13:27N 53°44' E 006°22'910.2
2014-Oct-18 12:33N 53°42' E 006°07'1010.0
2014-Oct-18 11:34N 53°38' E 005°51'10 9.8
2014-Oct-18 10:33N 53°35' E 005°35'9 9.2
2014-Oct-18 09:34N 53°32' E 005°21'9 9.2
2014-Oct-18 08:34N 53°29' E 005°06'9 9.4
2014-Oct-18 07:34N 53°26' E 004°51'9 8.7
2014-Oct-18 06:33N 53°20' E 004°40'10 9.2
2014-Oct-18 05:31N 53°12' E 004°33'9 9.4
2014-Oct-18 04:33N 53°04' E 004°25'9 9.1
2014-Oct-18 03:33N 52°56' E 004°19'9 9.3
2014-Oct-18 02:33N 52°48' E 004°11'10 9.5
2014-Oct-18 01:33N 52°40' E 004°01'10 9.9
2014-Oct-18 00:34N 52°33' E 003°49'9 9.0
2014-Oct-17 23:33N 52°27' E 003°38'1010.3
2014-Oct-17 22:33N 52°20' E 003°27'4510.5
2014-Oct-17 18:12N 51°46' E 002°38'6 9.7
2014-Oct-17 17:32N 51°41' E 002°31'9 9.5
2014-Oct-17 16:34N 51°34' E 002°21'9 9.1
2014-Oct-17 15:33N 51°26' E 002°13'9 9.2
2014-Oct-17 14:34N 51°18' E 002°07'9 8.9
2014-Oct-17 13:34N 51°11' E 001°57'9 9.3
2014-Oct-17 12:34N 51°06' E 001°45'10 9.6
2014-Oct-17 11:34N 50°59' E 001°35'10 9.6
2014-Oct-17 10:33N 50°51' E 001°26'10 9.8
2014-Oct-17 09:32N 50°42' E 001°20'19 9.6
2014-Oct-17 07:34N 50°30' E 000°57'10 9.7
2014-Oct-17 06:34N 50°27' E 000°43'10 9.7
2014-Oct-17 05:34N 50°24' E 000°28'115 9.6
2014-Oct-16 17:33N 50°13' W 002°31'9 9.1
2014-Oct-16 16:34N 50°13' W 002°45'10 9.5
2014-Oct-16 15:34N 50°13' W 003°00'10 9.8
2014-Oct-16 14:34N 50°12' W 003°15'1010.0
2014-Oct-16 13:34N 50°11' W 003°31'82 1.8
2014-Oct-14 16:07N 50°23' W 001°23'55 9.7
2014-Oct-14 10:30N 50°32' E 000°02'9 9.2
2014-Oct-14 09:33N 50°34' E 000°15'10 9.9
2014-Oct-14 08:33N 50°37' E 000°30'10 9.8
2014-Oct-14 07:34N 50°41' E 000°44'9 9.1
2014-Oct-14 06:33N 50°46' E 000°56'9 7.5
2014-Oct-14 05:21N 50°50' E 001°09'5 5.9
2014-Oct-14 04:34N 50°53' E 001°15'4 4.2
2014-Oct-14 03:33N 50°56' E 001°20'4 3.7
2014-Oct-14 02:33N 50°59' E 001°23'4 3.7
2014-Oct-14 01:33N 51°01' E 001°28'4 4.4
2014-Oct-14 00:34N 51°04' E 001°32'6 6.0
2014-Oct-13 23:34N 51°05' E 001°42'1010.0
2014-Oct-13 22:33N 51°02' E 001°57'1211.6
2014-Oct-13 21:34N 51°04' E 002°16'4 3.7
2014-Oct-13 20:33N 51°03' E 002°21'3 2.9
2014-Oct-13 19:28N 51°02' E 002°16'0 0.0
2014-Oct-13 18:31N 51°02' E 002°16'0 0.0
2014-Oct-13 17:31N 51°02' E 002°16'0 0.0
2014-Oct-13 16:28N 51°02' E 002°16'0 0.0
2014-Oct-13 15:28N 51°02' E 002°16'0 0.0
2014-Oct-13 14:25N 51°02' E 002°16'0 0.0
2014-Oct-13 13:25N 51°02' E 002°16'0 0.0
2014-Oct-13 12:24N 51°02' E 002°16'0 0.0
2014-Oct-13 11:28N 51°02' E 002°16'0 0.0
2014-Oct-13 10:32N 51°02' E 002°16'0 0.0
2014-Oct-13 09:22N 51°02' E 002°16'0 0.0
2014-Oct-13 08:31N 51°02' E 002°16'0 0.0
2014-Oct-13 07:28N 51°02' E 002°16'0 0.0
2014-Oct-13 06:31N 51°02' E 002°16'0 0.0
2014-Oct-13 05:19N 51°02' E 002°16'0 0.0
2014-Oct-13 04:28N 51°02' E 002°16'0 0.0
2014-Oct-13 03:25N 51°02' E 002°16'0 0.0
2014-Oct-13 02:25N 51°02' E 002°16'0 0.0
2014-Oct-13 01:28N 51°02' E 002°16'0 0.0
2014-Oct-13 00:28N 51°02' E 002°16'0 0.0
2014-Oct-12 23:25N 51°02' E 002°16'0 0.0
2014-Oct-12 22:22N 51°02' E 002°16'0 0.0
2014-Oct-12 21:31N 51°02' E 002°16'0 0.0
2014-Oct-12 20:31N 51°02' E 002°16'0 0.0
2014-Oct-12 19:28N 51°02' E 002°16'0 0.0
2014-Oct-12 18:28N 51°02' E 002°16'0 0.0
2014-Oct-12 17:28N 51°02' E 002°16'0 0.0
2014-Oct-12 16:28N 51°02' E 002°16'0 0.0
2014-Oct-12 15:13N 51°02' E 002°16'0 0.0
2014-Oct-12 14:26N 51°02' E 002°16'0 0.0
2014-Oct-12 13:28N 51°02' E 002°16'0 0.0
2014-Oct-12 12:30N 51°02' E 002°16'0 0.0
2014-Oct-12 11:32N 51°02' E 002°16'0 0.0
2014-Oct-12 10:31N 51°02' E 002°16'3 2.9
2014-Oct-12 09:33N 51°03' E 002°20'0 0.4
2014-Oct-12 08:33N 51°03' E 002°21'4 4.4
2014-Oct-12 07:34N 51°04' E 002°14'6 6.4
2014-Oct-12 06:33N 51°03' E 002°04'7 7.4
2014-Oct-12 05:34N 51°03' E 001°52'1 1.1
2014-Oct-12 04:32N 51°04' E 001°51'1 0.6
2014-Oct-12 03:34N 51°04' E 001°52'1 0.8
2014-Oct-12 02:31N 51°05' E 001°51'0 0.4
2014-Oct-12 01:31N 51°05' E 001°51'0 0.2
2014-Oct-12 00:31N 51°05' E 001°51'0 0.1
2014-Oct-11 23:31N 51°05' E 001°50'0 0.2
2014-Oct-11 22:33N 51°05' E 001°50'0 0.0
2014-Oct-11 21:34N 51°05' E 001°50'0 0.0
2014-Oct-11 20:34N 51°05' E 001°50'0 0.2
2014-Oct-11 19:34N 51°05' E 001°50'3 2.9
2014-Oct-11 18:33N 51°02' E 001°47'7 7.3
2014-Oct-11 17:34N 51°08' E 001°40'7 7.4
2014-Oct-11 16:34N 51°14' E 001°47'6 6.3
2014-Oct-11 15:33N 51°19' E 001°53'5 4.9
2014-Oct-11 14:34N 51°23' E 001°57'5 4.6
2014-Oct-11 13:34N 51°27' E 002°00'4 3.7
2014-Oct-11 12:34N 51°30' E 002°04'5 5.0
2014-Oct-11 11:34N 51°34' E 002°09'6 6.1
2014-Oct-11 10:34N 51°39' E 002°16'7 6.9
2014-Oct-11 09:32N 51°44' E 002°23'42 6.0
2014-Oct-11 02:32N 52°17' E 003°05'6 5.8
2014-Oct-11 01:33N 52°22' E 003°10'  
Track history (hours):
 
Tides and Currents Weather Stations Pressure Air Temp Water Temp Dewpoint Dewpoint Depression Visibility Wind Speed Wind Dir Waves Ship Positions

Emslake

Last reported at 2014-Oct-20 23:15 UTC. Time now 2014-Oct-22 09:51 UTC.
Position N 57°28' E 017°49'.

Length 100 m; draft 6.2 m.

Type: Cargo ship. MMSI: 305712000.

Date/timePositionNaut miles runAvg speedWind from/ knotsBaromVisibWave heightAir tempDewpointWater temp
2014-Oct-20 23:15N 57°28' E 017°49'7 9.9
2014-Oct-20 22:32N 57°22' E 017°44'10 9.8
2014-Oct-20 21:33N 57°13' E 017°37'11 9.8
2014-Oct-20 20:28N 57°03' E 017°30'71 9.6
2014-Oct-20 13:05N 55°59' E 016°32'5 9.6
2014-Oct-20 12:33N 55°57' E 016°24'32 9.8
2014-Oct-20 09:21N 55°40' E 015°37'8 9.9
2014-Oct-20 08:33N 55°37' E 015°24'1010.2
2014-Oct-20 07:34N 55°32' E 015°08'1010.2
2014-Oct-20 06:34N 55°27' E 014°53'1010.0
2014-Oct-20 05:34N 55°22' E 014°38'10 9.8
2014-Oct-20 04:34N 55°14' E 014°27'10 9.8
2014-Oct-20 03:34N 55°06' E 014°16'1010.2
2014-Oct-20 02:33N 54°60' E 014°03'1110.5
2014-Oct-20 01:33N 54°56' E 013°46'4110.3
2014-Oct-19 21:32N 54°39' E 012°40'10 9.8
2014-Oct-19 20:33N 54°34' E 012°26'9 9.1
2014-Oct-19 19:33N 54°28' E 012°15'9 9.0
2014-Oct-19 18:33N 54°25' E 012°00'10 9.9
2014-Oct-19 17:33N 54°26' E 011°43'34 9.9
2014-Oct-19 14:09N 54°34' E 010°47'610.2
2014-Oct-19 13:33N 54°33' E 010°36'10 9.7
2014-Oct-19 12:33N 54°30' E 010°21'9 9.1
2014-Oct-19 11:33N 54°23' E 010°11'2 2.3
2014-Oct-19 10:34N 54°22' E 010°08'0 0.0
2014-Oct-19 09:30N 54°22' E 010°08'2 2.5
2014-Oct-19 08:34N 54°22' E 010°04'8 7.9
2014-Oct-19 07:34N 54°22' E 009°50'8 7.7
2014-Oct-19 06:34N 54°17' E 009°39'6 6.0
2014-Oct-19 05:34N 54°12' E 009°34'13 6.4
2014-Oct-19 03:31N 54°03' E 009°18'5 4.8
2014-Oct-19 02:33N 53°58' E 009°16'4 3.6
2014-Oct-19 01:33N 53°55' E 009°12'3 2.7
2014-Oct-19 00:34N 53°54' E 009°09'4 4.0
2014-Oct-18 23:34N 53°52' E 009°02'9 8.6
2014-Oct-18 22:34N 53°50' E 008°48'9 8.8
2014-Oct-18 21:33N 53°57' E 008°38'10 9.6
2014-Oct-18 20:33N 53°59' E 008°22'10 9.7
2014-Oct-18 19:33N 53°59' E 008°06'1010.2
2014-Oct-18 18:33N 53°57' E 007°49'5310.4
2014-Oct-18 13:27N 53°44' E 006°22'910.2
2014-Oct-18 12:33N 53°42' E 006°07'1010.0
2014-Oct-18 11:34N 53°38' E 005°51'10 9.8
2014-Oct-18 10:33N 53°35' E 005°35'9 9.2
2014-Oct-18 09:34N 53°32' E 005°21'9 9.2
2014-Oct-18 08:34N 53°29' E 005°06'9 9.4
2014-Oct-18 07:34N 53°26' E 004°51'9 8.7
2014-Oct-18 06:33N 53°20' E 004°40'10 9.2
2014-Oct-18 05:31N 53°12' E 004°33'9 9.4
2014-Oct-18 04:33N 53°04' E 004°25'9 9.1
2014-Oct-18 03:33N 52°56' E 004°19'9 9.3
2014-Oct-18 02:33N 52°48' E 004°11'10 9.5
2014-Oct-18 01:33N 52°40' E 004°01'10 9.9
2014-Oct-18 00:34N 52°33' E 003°49'9 9.0
2014-Oct-17 23:33N 52°27' E 003°38'1010.3
2014-Oct-17 22:33N 52°20' E 003°27'4510.5
2014-Oct-17 18:12N 51°46' E 002°38'6 9.7
2014-Oct-17 17:32N 51°41' E 002°31'9 9.5
2014-Oct-17 16:34N 51°34' E 002°21'9 9.1
2014-Oct-17 15:33N 51°26' E 002°13'9 9.2
2014-Oct-17 14:34N 51°18' E 002°07'9 8.9
2014-Oct-17 13:34N 51°11' E 001°57'9 9.3
2014-Oct-17 12:34N 51°06' E 001°45'10 9.6
2014-Oct-17 11:34N 50°59' E 001°35'10 9.6
2014-Oct-17 10:33N 50°51' E 001°26'10 9.8
2014-Oct-17 09:32N 50°42' E 001°20'19 9.6
2014-Oct-17 07:34N 50°30' E 000°57'10 9.7
2014-Oct-17 06:34N 50°27' E 000°43'10 9.7
2014-Oct-17 05:34N 50°24' E 000°28'115 9.6
2014-Oct-16 17:33N 50°13' W 002°31'9 9.1
2014-Oct-16 16:34N 50°13' W 002°45'10 9.5
2014-Oct-16 15:34N 50°13' W 003°00'10 9.8
2014-Oct-16 14:34N 50°12' W 003°15'1010.0
2014-Oct-16 13:34N 50°11' W 003°31'82 1.8
2014-Oct-14 16:07N 50°23' W 001°23'55 9.7
2014-Oct-14 10:30N 50°32' E 000°02'9 9.2
2014-Oct-14 09:33N 50°34' E 000°15'10 9.9
2014-Oct-14 08:33N 50°37' E 000°30'10 9.8
2014-Oct-14 07:34N 50°41' E 000°44'9 9.1
2014-Oct-14 06:33N 50°46' E 000°56'9 7.5
2014-Oct-14 05:21N 50°50' E 001°09'5 5.9
2014-Oct-14 04:34N 50°53' E 001°15'4 4.2
2014-Oct-14 03:33N 50°56' E 001°20'4 3.7
2014-Oct-14 02:33N 50°59' E 001°23'4 3.7
2014-Oct-14 01:33N 51°01' E 001°28'4 4.4
2014-Oct-14 00:34N 51°04' E 001°32'6 6.0
2014-Oct-13 23:34N 51°05' E 001°42'1010.0
2014-Oct-13 22:33N 51°02' E 001°57'1211.6
2014-Oct-13 21:34N 51°04' E 002°16'4 3.7
2014-Oct-13 20:33N 51°03' E 002°21'3 2.9
2014-Oct-13 19:28N 51°02' E 002°16'0 0.0
2014-Oct-13 18:31N 51°02' E 002°16'0 0.0
2014-Oct-13 17:31N 51°02' E 002°16'0 0.0
2014-Oct-13 16:28N 51°02' E 002°16'0 0.0
2014-Oct-13 15:28N 51°02' E 002°16'0 0.0
2014-Oct-13 14:25N 51°02' E 002°16'0 0.0
2014-Oct-13 13:25N 51°02' E 002°16'0 0.0
2014-Oct-13 12:24N 51°02' E 002°16'0 0.0
2014-Oct-13 11:28N 51°02' E 002°16'0 0.0
2014-Oct-13 10:32N 51°02' E 002°16'0 0.0
2014-Oct-13 09:22N 51°02' E 002°16'0 0.0
2014-Oct-13 08:31N 51°02' E 002°16'0 0.0
2014-Oct-13 07:28N 51°02' E 002°16'0 0.0
2014-Oct-13 06:31N 51°02' E 002°16'0 0.0
2014-Oct-13 05:19N 51°02' E 002°16'0 0.0
2014-Oct-13 04:28N 51°02' E 002°16'0 0.0
2014-Oct-13 03:25N 51°02' E 002°16'0 0.0
2014-Oct-13 02:25N 51°02' E 002°16'0 0.0
2014-Oct-13 01:28N 51°02' E 002°16'0 0.0
2014-Oct-13 00:28N 51°02' E 002°16'0 0.0
2014-Oct-12 23:25N 51°02' E 002°16'0 0.0
2014-Oct-12 22:22N 51°02' E 002°16'0 0.0
2014-Oct-12 21:31N 51°02' E 002°16'0 0.0
2014-Oct-12 20:31N 51°02' E 002°16'0 0.0
2014-Oct-12 19:28N 51°02' E 002°16'0 0.0
2014-Oct-12 18:28N 51°02' E 002°16'0 0.0
2014-Oct-12 17:28N 51°02' E 002°16'0 0.0
2014-Oct-12 16:28N 51°02' E 002°16'0 0.0
2014-Oct-12 15:13N 51°02' E 002°16'0 0.0
2014-Oct-12 14:26N 51°02' E 002°16'0 0.0
2014-Oct-12 13:28N 51°02' E 002°16'0 0.0
2014-Oct-12 12:30N 51°02' E 002°16'0 0.0
2014-Oct-12 11:32N 51°02' E 002°16'0 0.0
2014-Oct-12 10:31N 51°02' E 002°16'3 2.9
2014-Oct-12 09:33N 51°03' E 002°20'0 0.4
2014-Oct-12 08:33N 51°03' E 002°21'4 4.4
2014-Oct-12 07:34N 51°04' E 002°14'6 6.4
2014-Oct-12 06:33N 51°03' E 002°04'7 7.4
2014-Oct-12 05:34N 51°03' E 001°52'1 1.1
2014-Oct-12 04:32N 51°04' E 001°51'1 0.6
2014-Oct-12 03:34N 51°04' E 001°52'1 0.8
2014-Oct-12 02:31N 51°05' E 001°51'0 0.4
2014-Oct-12 01:31N 51°05' E 001°51'0 0.2
2014-Oct-12 00:31N 51°05' E 001°51'0 0.1
2014-Oct-11 23:31N 51°05' E 001°50'0 0.2
2014-Oct-11 22:33N 51°05' E 001°50'0 0.0
2014-Oct-11 21:34N 51°05' E 001°50'0 0.0
2014-Oct-11 20:34N 51°05' E 001°50'0 0.2
2014-Oct-11 19:34N 51°05' E 001°50'3 2.9
2014-Oct-11 18:33N 51°02' E 001°47'7 7.3
2014-Oct-11 17:34N 51°08' E 001°40'7 7.4
2014-Oct-11 16:34N 51°14' E 001°47'6 6.3
2014-Oct-11 15:33N 51°19' E 001°53'5 4.9
2014-Oct-11 14:34N 51°23' E 001°57'5 4.6
2014-Oct-11 13:34N 51°27' E 002°00'4 3.7
2014-Oct-11 12:34N 51°30' E 002°04'5 5.0
2014-Oct-11 11:34N 51°34' E 002°09'6 6.1
2014-Oct-11 10:34N 51°39' E 002°16'7 6.9
2014-Oct-11 09:32N 51°44' E 002°23'42 6.0
2014-Oct-11 02:32N 52°17' E 003°05'6 5.8
2014-Oct-11 01:33N 52°22' E 003°10'  

Dump ship's entire track history